sensor_id;sensor_type;location;lat;lon;timestamp;temperature;humidity
29201;DHT22;16244;51.956;12.980;2023-03-02T00:02:22;-2.30;93.90
29201;DHT22;16244;51.956;12.980;2023-03-02T00:04:52;-2.30;93.90
29201;DHT22;16244;51.956;12.980;2023-03-02T00:07:22;-2.30;93.90
29201;DHT22;16244;51.956;12.980;2023-03-02T00:09:50;-2.30;93.30
29201;DHT22;16244;51.956;12.980;2023-03-02T00:12:19;-2.40;93.70
29201;DHT22;16244;51.956;12.980;2023-03-02T00:14:46;-2.40;93.90
29201;DHT22;16244;51.956;12.980;2023-03-02T00:17:13;-2.30;93.80
29201;DHT22;16244;51.956;12.980;2023-03-02T00:19:42;-2.40;93.80
29201;DHT22;16244;51.956;12.980;2023-03-02T00:22:10;-2.30;93.80
29201;DHT22;16244;51.956;12.980;2023-03-02T00:24:38;-2.30;93.80
29201;DHT22;16244;51.956;12.980;2023-03-02T00:27:05;-2.40;93.70
29201;DHT22;16244;51.956;12.980;2023-03-02T00:29:33;-2.40;93.80
29201;DHT22;16244;51.956;12.980;2023-03-02T00:32:00;-2.40;94.30
29201;DHT22;16244;51.956;12.980;2023-03-02T00:34:29;-2.40;94.50
29201;DHT22;16244;51.956;12.980;2023-03-02T00:36:58;-2.40;94.90
29201;DHT22;16244;51.956;12.980;2023-03-02T00:39:26;-2.40;95.30
29201;DHT22;16244;51.956;12.980;2023-03-02T00:41:53;-2.40;95.10
29201;DHT22;16244;51.956;12.980;2023-03-02T00:44:21;-2.40;95.10
29201;DHT22;16244;51.956;12.980;2023-03-02T00:46:48;-2.40;94.90
29201;DHT22;16244;51.956;12.980;2023-03-02T00:49:15;-2.40;94.60
29201;DHT22;16244;51.956;12.980;2023-03-02T00:51:43;-2.40;94.70
29201;DHT22;16244;51.956;12.980;2023-03-02T00:54:12;-2.50;95.20
29201;DHT22;16244;51.956;12.980;2023-03-02T00:56:39;-2.50;95.20
29201;DHT22;16244;51.956;12.980;2023-03-02T00:59:09;-2.50;95.10
29201;DHT22;16244;51.956;12.980;2023-03-02T01:01:51;-2.50;95.20
29201;DHT22;16244;51.956;12.980;2023-03-02T01:04:23;-2.70;95.50
29201;DHT22;16244;51.956;12.980;2023-03-02T01:06:55;-2.80;95.60
29201;DHT22;16244;51.956;12.980;2023-03-02T01:09:24;-2.70;95.60
29201;DHT22;16244;51.956;12.980;2023-03-02T01:11:52;-2.70;95.60
29201;DHT22;16244;51.956;12.980;2023-03-02T01:14:20;-2.60;95.60
29201;DHT22;16244;51.956;12.980;2023-03-02T01:16:48;-2.60;95.90
29201;DHT22;16244;51.956;12.980;2023-03-02T01:19:16;-2.60;96.10
29201;DHT22;16244;51.956;12.980;2023-03-02T01:21:44;-2.50;96.30
29201;DHT22;16244;51.956;12.980;2023-03-02T01:24:11;-2.50;96.40
29201;DHT22;16244;51.956;12.980;2023-03-02T01:26:40;-2.50;97.00
29201;DHT22;16244;51.956;12.980;2023-03-02T01:29:08;-2.50;97.10
29201;DHT22;16244;51.956;12.980;2023-03-02T01:31:36;-2.40;97.00
29201;DHT22;16244;51.956;12.980;2023-03-02T01:34:04;-2.40;96.90
29201;DHT22;16244;51.956;12.980;2023-03-02T01:36:32;-2.40;96.80
29201;DHT22;16244;51.956;12.980;2023-03-02T01:39:00;-2.40;96.80
29201;DHT22;16244;51.956;12.980;2023-03-02T01:41:27;-2.50;96.00
29201;DHT22;16244;51.956;12.980;2023-03-02T01:43:56;-2.50;96.30
29201;DHT22;16244;51.956;12.980;2023-03-02T01:46:25;-2.50;96.00
29201;DHT22;16244;51.956;12.980;2023-03-02T01:48:57;-2.40;95.70
29201;DHT22;16244;51.956;12.980;2023-03-02T01:51:26;-2.50;95.40
29201;DHT22;16244;51.956;12.980;2023-03-02T01:54:01;-2.50;95.50
29201;DHT22;16244;51.956;12.980;2023-03-02T01:56:36;-2.50;96.00
29201;DHT22;16244;51.956;12.980;2023-03-02T01:59:08;-2.50;96.70
29201;DHT22;16244;51.956;12.980;2023-03-02T02:01:39;-2.40;97.20
29201;DHT22;16244;51.956;12.980;2023-03-02T02:04:08;-2.40;97.30
29201;DHT22;16244;51.956;12.980;2023-03-02T02:06:38;-2.30;97.30
29201;DHT22;16244;51.956;12.980;2023-03-02T02:09:09;-2.30;97.30
29201;DHT22;16244;51.956;12.980;2023-03-02T02:11:38;-2.20;96.60
29201;DHT22;16244;51.956;12.980;2023-03-02T02:14:06;-2.30;96.00
29201;DHT22;16244;51.956;12.980;2023-03-02T02:16:34;-2.30;95.80
29201;DHT22;16244;51.956;12.980;2023-03-02T02:19:09;-2.20;95.20
29201;DHT22;16244;51.956;12.980;2023-03-02T02:21:38;-2.30;95.00
29201;DHT22;16244;51.956;12.980;2023-03-02T02:24:09;-2.30;94.70
29201;DHT22;16244;51.956;12.980;2023-03-02T02:26:42;-2.40;94.90
29201;DHT22;16244;51.956;12.980;2023-03-02T02:29:13;-2.40;94.90
29201;DHT22;16244;51.956;12.980;2023-03-02T02:31:46;-2.60;94.80
29201;DHT22;16244;51.956;12.980;2023-03-02T02:34:18;-2.60;95.00
29201;DHT22;16244;51.956;12.980;2023-03-02T02:36:50;-2.50;95.00
29201;DHT22;16244;51.956;12.980;2023-03-02T02:39:22;-2.60;95.10
29201;DHT22;16244;51.956;12.980;2023-03-02T02:41:54;-2.60;95.00
29201;DHT22;16244;51.956;12.980;2023-03-02T02:44:22;-2.70;95.10
29201;DHT22;16244;51.956;12.980;2023-03-02T02:46:50;-2.70;95.20
29201;DHT22;16244;51.956;12.980;2023-03-02T02:49:27;-2.70;95.20
29201;DHT22;16244;51.956;12.980;2023-03-02T02:51:55;-2.80;95.40
29201;DHT22;16244;51.956;12.980;2023-03-02T02:54:23;-2.80;95.30
29201;DHT22;16244;51.956;12.980;2023-03-02T02:56:53;-2.70;95.30
29201;DHT22;16244;51.956;12.980;2023-03-02T02:59:23;-2.90;95.10
29201;DHT22;16244;51.956;12.980;2023-03-02T03:01:52;-2.80;95.30
29201;DHT22;16244;51.956;12.980;2023-03-02T03:04:23;-2.90;95.40
29201;DHT22;16244;51.956;12.980;2023-03-02T03:06:52;-2.90;95.40
29201;DHT22;16244;51.956;12.980;2023-03-02T03:09:21;-3.00;95.60
29201;DHT22;16244;51.956;12.980;2023-03-02T03:11:50;-3.00;95.60
29201;DHT22;16244;51.956;12.980;2023-03-02T03:14:21;-3.00;95.40
29201;DHT22;16244;51.956;12.980;2023-03-02T03:16:51;-3.00;95.30
29201;DHT22;16244;51.956;12.980;2023-03-02T03:19:21;-3.00;95.60
29201;DHT22;16244;51.956;12.980;2023-03-02T03:21:50;-3.00;96.10
29201;DHT22;16244;51.956;12.980;2023-03-02T03:24:19;-2.90;96.30
29201;DHT22;16244;51.956;12.980;2023-03-02T03:26:47;-2.90;96.30
29201;DHT22;16244;51.956;12.980;2023-03-02T03:29:15;-2.90;95.90
29201;DHT22;16244;51.956;12.980;2023-03-02T03:31:45;-2.90;95.80
29201;DHT22;16244;51.956;12.980;2023-03-02T03:34:12;-2.90;95.70
29201;DHT22;16244;51.956;12.980;2023-03-02T03:36:40;-3.00;95.60
29201;DHT22;16244;51.956;12.980;2023-03-02T03:39:09;-3.10;95.90
29201;DHT22;16244;51.956;12.980;2023-03-02T03:41:37;-3.00;96.10
29201;DHT22;16244;51.956;12.980;2023-03-02T03:44:04;-3.00;96.20
29201;DHT22;16244;51.956;12.980;2023-03-02T03:46:32;-3.00;96.20
29201;DHT22;16244;51.956;12.980;2023-03-02T03:49:01;-3.00;96.20
29201;DHT22;16244;51.956;12.980;2023-03-02T03:51:30;-3.00;95.80
29201;DHT22;16244;51.956;12.980;2023-03-02T03:54:00;-3.00;95.80
29201;DHT22;16244;51.956;12.980;2023-03-02T03:56:29;-3.10;95.70
29201;DHT22;16244;51.956;12.980;2023-03-02T03:58:59;-3.10;95.80
29201;DHT22;16244;51.956;12.980;2023-03-02T04:01:33;-3.10;95.90
29201;DHT22;16244;51.956;12.980;2023-03-02T04:04:05;-3.10;95.80
29201;DHT22;16244;51.956;12.980;2023-03-02T04:06:32;-3.10;95.90
29201;DHT22;16244;51.956;12.980;2023-03-02T04:08:59;-3.10;95.80
29201;DHT22;16244;51.956;12.980;2023-03-02T04:11:30;-3.10;95.60
29201;DHT22;16244;51.956;12.980;2023-03-02T04:13:57;-3.10;95.80
29201;DHT22;16244;51.956;12.980;2023-03-02T04:16:25;-3.10;96.00
29201;DHT22;16244;51.956;12.980;2023-03-02T04:18:53;-3.10;96.20
29201;DHT22;16244;51.956;12.980;2023-03-02T04:21:22;-3.00;96.50
29201;DHT22;16244;51.956;12.980;2023-03-02T04:23:50;-3.10;96.40
29201;DHT22;16244;51.956;12.980;2023-03-02T04:26:17;-3.10;96.40
29201;DHT22;16244;51.956;12.980;2023-03-02T04:28:45;-3.10;96.50
29201;DHT22;16244;51.956;12.980;2023-03-02T04:31:16;-3.00;96.60
29201;DHT22;16244;51.956;12.980;2023-03-02T04:33:43;-3.00;96.60
29201;DHT22;16244;51.956;12.980;2023-03-02T04:36:11;-3.00;96.80
29201;DHT22;16244;51.956;12.980;2023-03-02T04:38:40;-3.00;96.90
29201;DHT22;16244;51.956;12.980;2023-03-02T04:41:07;-3.00;97.20
29201;DHT22;16244;51.956;12.980;2023-03-02T04:43:35;-3.00;97.40
29201;DHT22;16244;51.956;12.980;2023-03-02T04:46:02;-3.10;97.50
29201;DHT22;16244;51.956;12.980;2023-03-02T04:48:30;-3.00;97.30
29201;DHT22;16244;51.956;12.980;2023-03-02T04:50:58;-3.00;97.20
29201;DHT22;16244;51.956;12.980;2023-03-02T04:53:26;-3.10;96.70
29201;DHT22;16244;51.956;12.980;2023-03-02T04:55:55;-3.10;96.60
29201;DHT22;16244;51.956;12.980;2023-03-02T04:58:22;-3.10;97.00
29201;DHT22;16244;51.956;12.980;2023-03-02T05:00:50;-3.20;96.50
29201;DHT22;16244;51.956;12.980;2023-03-02T05:03:19;-3.20;96.70
29201;DHT22;16244;51.956;12.980;2023-03-02T05:05:47;-3.20;96.40
29201;DHT22;16244;51.956;12.980;2023-03-02T05:08:15;-3.20;96.20
29201;DHT22;16244;51.956;12.980;2023-03-02T05:10:42;-3.30;96.50
29201;DHT22;16244;51.956;12.980;2023-03-02T05:13:11;-3.30;97.70
29201;DHT22;16244;51.956;12.980;2023-03-02T05:15:39;-3.20;98.20
29201;DHT22;16244;51.956;12.980;2023-03-02T05:18:10;-3.20;98.40
29201;DHT22;16244;51.956;12.980;2023-03-02T05:20:38;-3.20;98.70
29201;DHT22;16244;51.956;12.980;2023-03-02T05:23:08;-3.20;98.80
29201;DHT22;16244;51.956;12.980;2023-03-02T05:25:37;-3.10;99.40
29201;DHT22;16244;51.956;12.980;2023-03-02T05:28:05;-3.00;98.90
29201;DHT22;16244;51.956;12.980;2023-03-02T05:30:33;-3.00;98.30
29201;DHT22;16244;51.956;12.980;2023-03-02T05:33:02;-2.90;98.00
29201;DHT22;16244;51.956;12.980;2023-03-02T05:35:30;-2.90;97.40
29201;DHT22;16244;51.956;12.980;2023-03-02T05:37:58;-2.90;97.00
29201;DHT22;16244;51.956;12.980;2023-03-02T05:40:25;-2.90;96.90
29201;DHT22;16244;51.956;12.980;2023-03-02T05:42:52;-2.90;96.90
29201;DHT22;16244;51.956;12.980;2023-03-02T05:45:23;-2.80;96.60
29201;DHT22;16244;51.956;12.980;2023-03-02T05:47:52;-2.90;96.60
29201;DHT22;16244;51.956;12.980;2023-03-02T05:50:20;-2.90;96.70
29201;DHT22;16244;51.956;12.980;2023-03-02T05:52:48;-2.90;96.70
29201;DHT22;16244;51.956;12.980;2023-03-02T05:55:17;-2.90;97.20
29201;DHT22;16244;51.956;12.980;2023-03-02T05:57:45;-2.90;96.50
29201;DHT22;16244;51.956;12.980;2023-03-02T06:00:15;-2.90;96.50
29201;DHT22;16244;51.956;12.980;2023-03-02T06:02:43;-2.90;96.20
29201;DHT22;16244;51.956;12.980;2023-03-02T06:05:14;-2.90;96.00
29201;DHT22;16244;51.956;12.980;2023-03-02T06:07:42;-2.90;95.90
29201;DHT22;16244;51.956;12.980;2023-03-02T06:10:11;-3.00;95.90
29201;DHT22;16244;51.956;12.980;2023-03-02T06:12:39;-3.00;96.20
29201;DHT22;16244;51.956;12.980;2023-03-02T06:15:07;-3.00;96.00
29201;DHT22;16244;51.956;12.980;2023-03-02T06:17:35;-3.00;96.00
29201;DHT22;16244;51.956;12.980;2023-03-02T06:20:04;-2.90;95.90
29201;DHT22;16244;51.956;12.980;2023-03-02T06:22:37;-3.00;95.80
29201;DHT22;16244;51.956;12.980;2023-03-02T06:25:07;-2.90;96.00
29201;DHT22;16244;51.956;12.980;2023-03-02T06:27:36;-2.70;96.00
29201;DHT22;16244;51.956;12.980;2023-03-02T06:30:06;-2.60;96.10
29201;DHT22;16244;51.956;12.980;2023-03-02T06:32:34;-2.50;96.60
29201;DHT22;16244;51.956;12.980;2023-03-02T06:35:02;-2.40;96.60
29201;DHT22;16244;51.956;12.980;2023-03-02T06:37:31;-2.30;96.40
29201;DHT22;16244;51.956;12.980;2023-03-02T06:40:00;-2.20;96.30
29201;DHT22;16244;51.956;12.980;2023-03-02T06:42:27;-2.20;96.40
29201;DHT22;16244;51.956;12.980;2023-03-02T06:44:55;-2.00;96.20
29201;DHT22;16244;51.956;12.980;2023-03-02T06:47:23;-1.90;95.40
29201;DHT22;16244;51.956;12.980;2023-03-02T06:49:50;-1.80;95.10
29201;DHT22;16244;51.956;12.980;2023-03-02T06:52:18;-1.60;95.00
29201;DHT22;16244;51.956;12.980;2023-03-02T06:54:45;-1.20;94.50
29201;DHT22;16244;51.956;12.980;2023-03-02T06:57:14;-0.90;94.00
29201;DHT22;16244;51.956;12.980;2023-03-02T06:59:42;-0.80;93.40
29201;DHT22;16244;51.956;12.980;2023-03-02T07:02:09;-0.60;92.90
29201;DHT22;16244;51.956;12.980;2023-03-02T07:04:37;-0.40;92.90
29201;DHT22;16244;51.956;12.980;2023-03-02T07:07:05;-0.20;92.40
29201;DHT22;16244;51.956;12.980;2023-03-02T07:09:32;0.40;91.60
29201;DHT22;16244;51.956;12.980;2023-03-02T07:12:00;1.10;90.30
29201;DHT22;16244;51.956;12.980;2023-03-02T07:14:29;1.60;87.90
29201;DHT22;16244;51.956;12.980;2023-03-02T07:16:56;2.20;85.10
29201;DHT22;16244;51.956;12.980;2023-03-02T07:19:25;2.80;82.60
29201;DHT22;16244;51.956;12.980;2023-03-02T07:21:52;3.20;80.50
29201;DHT22;16244;51.956;12.980;2023-03-02T07:24:20;3.50;78.90
29201;DHT22;16244;51.956;12.980;2023-03-02T07:26:48;3.90;78.70
29201;DHT22;16244;51.956;12.980;2023-03-02T07:29:15;4.20;76.00
29201;DHT22;16244;51.956;12.980;2023-03-02T07:31:44;4.40;75.50
29201;DHT22;16244;51.956;12.980;2023-03-02T07:34:11;4.30;74.70
29201;DHT22;16244;51.956;12.980;2023-03-02T07:36:40;4.10;76.00
29201;DHT22;16244;51.956;12.980;2023-03-02T07:39:07;4.40;74.90
29201;DHT22;16244;51.956;12.980;2023-03-02T07:41:35;4.60;74.00
29201;DHT22;16244;51.956;12.980;2023-03-02T07:44:02;4.70;72.90
29201;DHT22;16244;51.956;12.980;2023-03-02T07:46:30;5.10;73.00
29201;DHT22;16244;51.956;12.980;2023-03-02T07:48:59;5.20;72.50
29201;DHT22;16244;51.956;12.980;2023-03-02T07:51:26;5.10;73.30
29201;DHT22;16244;51.956;12.980;2023-03-02T07:53:54;5.10;74.20
29201;DHT22;16244;51.956;12.980;2023-03-02T07:56:21;5.30;73.30
29201;DHT22;16244;51.956;12.980;2023-03-02T07:58:49;5.80;72.30
29201;DHT22;16244;51.956;12.980;2023-03-02T08:01:16;6.30;70.80
29201;DHT22;16244;51.956;12.980;2023-03-02T08:03:44;6.70;68.70
29201;DHT22;16244;51.956;12.980;2023-03-02T08:06:12;7.00;66.50
29201;DHT22;16244;51.956;12.980;2023-03-02T08:08:40;7.10;68.20
29201;DHT22;16244;51.956;12.980;2023-03-02T08:11:09;6.90;70.00
29201;DHT22;16244;51.956;12.980;2023-03-02T08:13:37;6.00;73.30
29201;DHT22;16244;51.956;12.980;2023-03-02T08:16:06;5.60;75.60
29201;DHT22;16244;51.956;12.980;2023-03-02T08:18:34;5.00;77.40
29201;DHT22;16244;51.956;12.980;2023-03-02T08:21:03;5.30;79.40
29201;DHT22;16244;51.956;12.980;2023-03-02T08:23:31;5.80;77.30
29201;DHT22;16244;51.956;12.980;2023-03-02T08:25:59;6.00;75.90
29201;DHT22;16244;51.956;12.980;2023-03-02T08:28:26;6.50;74.00
29201;DHT22;16244;51.956;12.980;2023-03-02T08:30:55;5.80;75.40
29201;DHT22;16244;51.956;12.980;2023-03-02T08:33:24;5.60;77.10
29201;DHT22;16244;51.956;12.980;2023-03-02T08:35:56;5.30;78.10
29201;DHT22;16244;51.956;12.980;2023-03-02T08:38:24;5.70;78.60
29201;DHT22;16244;51.956;12.980;2023-03-02T08:40:53;5.50;76.90
29201;DHT22;16244;51.956;12.980;2023-03-02T08:43:22;5.80;76.80
29201;DHT22;16244;51.956;12.980;2023-03-02T08:45:50;5.50;77.80
29201;DHT22;16244;51.956;12.980;2023-03-02T08:48:18;5.80;77.90
29201;DHT22;16244;51.956;12.980;2023-03-02T08:50:53;6.40;77.30
29201;DHT22;16244;51.956;12.980;2023-03-02T08:53:21;5.70;77.60
29201;DHT22;16244;51.956;12.980;2023-03-02T08:55:49;5.80;78.80
29201;DHT22;16244;51.956;12.980;2023-03-02T08:58:18;6.30;77.20
29201;DHT22;16244;51.956;12.980;2023-03-02T09:00:45;6.60;77.50
29201;DHT22;16244;51.956;12.980;2023-03-02T09:03:13;6.70;74.70
29201;DHT22;16244;51.956;12.980;2023-03-02T09:05:41;6.60;74.80
29201;DHT22;16244;51.956;12.980;2023-03-02T09:08:08;7.10;73.50
29201;DHT22;16244;51.956;12.980;2023-03-02T09:10:36;7.00;72.80
29201;DHT22;16244;51.956;12.980;2023-03-02T09:13:04;6.90;73.70
29201;DHT22;16244;51.956;12.980;2023-03-02T09:15:33;7.10;73.70
29201;DHT22;16244;51.956;12.980;2023-03-02T09:18:00;7.10;73.50
29201;DHT22;16244;51.956;12.980;2023-03-02T09:20:28;7.30;73.40
29201;DHT22;16244;51.956;12.980;2023-03-02T09:22:55;6.90;75.30
29201;DHT22;16244;51.956;12.980;2023-03-02T09:25:23;7.10;75.00
29201;DHT22;16244;51.956;12.980;2023-03-02T09:27:50;7.70;72.50
29201;DHT22;16244;51.956;12.980;2023-03-02T09:30:18;8.40;72.40
29201;DHT22;16244;51.956;12.980;2023-03-02T09:32:47;8.90;69.30
29201;DHT22;16244;51.956;12.980;2023-03-02T09:35:15;9.00;68.70
29201;DHT22;16244;51.956;12.980;2023-03-02T09:37:42;8.60;68.80
29201;DHT22;16244;51.956;12.980;2023-03-02T09:40:16;8.70;70.30
29201;DHT22;16244;51.956;12.980;2023-03-02T09:43:15;9.70;66.10
29201;DHT22;16244;51.956;12.980;2023-03-02T09:45:54;10.10;65.30
29201;DHT22;16244;51.956;12.980;2023-03-02T09:48:36;10.70;63.30
29201;DHT22;16244;51.956;12.980;2023-03-02T09:51:19;10.80;62.70
29201;DHT22;16244;51.956;12.980;2023-03-02T09:53:53;11.30;61.50
29201;DHT22;16244;51.956;12.980;2023-03-02T09:56:23;11.80;60.00
29201;DHT22;16244;51.956;12.980;2023-03-02T09:58:55;11.60;59.70
29201;DHT22;16244;51.956;12.980;2023-03-02T10:01:33;11.70;60.00
29201;DHT22;16244;51.956;12.980;2023-03-02T10:04:12;11.80;60.60
29201;DHT22;16244;51.956;12.980;2023-03-02T10:06:41;11.60;59.60
29201;DHT22;16244;51.956;12.980;2023-03-02T10:09:09;11.30;62.00
29201;DHT22;16244;51.956;12.980;2023-03-02T10:11:46;11.70;59.10
29201;DHT22;16244;51.956;12.980;2023-03-02T10:14:19;12.30;58.90
29201;DHT22;16244;51.956;12.980;2023-03-02T10:16:53;12.80;56.60
29201;DHT22;16244;51.956;12.980;2023-03-02T10:19:28;11.90;57.10
29201;DHT22;16244;51.956;12.980;2023-03-02T10:22:03;12.30;57.90
29201;DHT22;16244;51.956;12.980;2023-03-02T10:24:38;12.50;56.50
29201;DHT22;16244;51.956;12.980;2023-03-02T10:27:13;12.80;56.70
29201;DHT22;16244;51.956;12.980;2023-03-02T10:29:46;13.20;55.10
29201;DHT22;16244;51.956;12.980;2023-03-02T10:32:21;13.20;53.40
29201;DHT22;16244;51.956;12.980;2023-03-02T10:34:53;12.30;56.70
29201;DHT22;16244;51.956;12.980;2023-03-02T10:37:22;12.10;55.90
29201;DHT22;16244;51.956;12.980;2023-03-02T10:39:50;12.60;55.10
29201;DHT22;16244;51.956;12.980;2023-03-02T10:42:20;12.30;55.20
29201;DHT22;16244;51.956;12.980;2023-03-02T10:44:50;10.90;59.00
29201;DHT22;16244;51.956;12.980;2023-03-02T10:47:23;10.40;61.60
29201;DHT22;16244;51.956;12.980;2023-03-02T10:49:53;10.00;63.10
29201;DHT22;16244;51.956;12.980;2023-03-02T10:52:23;9.10;66.20
29201;DHT22;16244;51.956;12.980;2023-03-02T10:55:01;8.30;70.00
29201;DHT22;16244;51.956;12.980;2023-03-02T10:57:34;7.60;73.00
29201;DHT22;16244;51.956;12.980;2023-03-02T11:00:14;7.40;73.50
29201;DHT22;16244;51.956;12.980;2023-03-02T11:02:48;7.40;74.00
29201;DHT22;16244;51.956;12.980;2023-03-02T11:05:25;7.00;75.50
29201;DHT22;16244;51.956;12.980;2023-03-02T11:07:55;6.90;76.40
29201;DHT22;16244;51.956;12.980;2023-03-02T11:10:25;6.80;77.70
29201;DHT22;16244;51.956;12.980;2023-03-02T11:12:54;6.80;78.50
29201;DHT22;16244;51.956;12.980;2023-03-02T11:15:25;6.80;77.70
29201;DHT22;16244;51.956;12.980;2023-03-02T11:17:58;6.60;78.40
29201;DHT22;16244;51.956;12.980;2023-03-02T11:20:29;6.40;78.70
29201;DHT22;16244;51.956;12.980;2023-03-02T11:23:17;6.40;79.90
29201;DHT22;16244;51.956;12.980;2023-03-02T11:25:50;6.40;80.50
29201;DHT22;16244;51.956;12.980;2023-03-02T11:28:30;6.40;80.40
29201;DHT22;16244;51.956;12.980;2023-03-02T11:31:01;6.40;79.60
29201;DHT22;16244;51.956;12.980;2023-03-02T11:33:35;6.20;79.50
29201;DHT22;16244;51.956;12.980;2023-03-02T11:36:08;6.10;80.10
29201;DHT22;16244;51.956;12.980;2023-03-02T11:38:44;6.10;81.70
29201;DHT22;16244;51.956;12.980;2023-03-02T11:41:20;6.20;81.30
29201;DHT22;16244;51.956;12.980;2023-03-02T11:43:52;6.20;81.30
29201;DHT22;16244;51.956;12.980;2023-03-02T11:46:23;6.10;80.40
29201;DHT22;16244;51.956;12.980;2023-03-02T11:48:54;6.10;80.70
29201;DHT22;16244;51.956;12.980;2023-03-02T11:51:26;6.10;82.60
29201;DHT22;16244;51.956;12.980;2023-03-02T11:53:57;6.20;81.70
29201;DHT22;16244;51.956;12.980;2023-03-02T11:56:29;6.20;82.90
29201;DHT22;16244;51.956;12.980;2023-03-02T11:58:59;6.10;82.10
29201;DHT22;16244;51.956;12.980;2023-03-02T12:01:30;6.10;81.90
29201;DHT22;16244;51.956;12.980;2023-03-02T12:04:07;6.10;82.10
29201;DHT22;16244;51.956;12.980;2023-03-02T12:06:39;6.20;81.10
29201;DHT22;16244;51.956;12.980;2023-03-02T12:09:26;6.30;82.90
29201;DHT22;16244;51.956;12.980;2023-03-02T12:11:58;6.40;81.50
29201;DHT22;16244;51.956;12.980;2023-03-02T12:14:34;6.40;81.00
29201;DHT22;16244;51.956;12.980;2023-03-02T12:17:05;6.40;80.80
29201;DHT22;16244;51.956;12.980;2023-03-02T12:19:44;6.50;78.90
29201;DHT22;16244;51.956;12.980;2023-03-02T12:22:25;6.60;80.60
29201;DHT22;16244;51.956;12.980;2023-03-02T12:25:01;6.60;81.20
29201;DHT22;16244;51.956;12.980;2023-03-02T12:27:34;6.50;79.70
29201;DHT22;16244;51.956;12.980;2023-03-02T12:30:21;6.60;78.40
29201;DHT22;16244;51.956;12.980;2023-03-02T12:33:05;6.80;81.00
29201;DHT22;16244;51.956;12.980;2023-03-02T12:35:43;6.80;78.10
29201;DHT22;16244;51.956;12.980;2023-03-02T12:38:23;6.70;78.70
29201;DHT22;16244;51.956;12.980;2023-03-02T12:41:03;6.80;80.40
29201;DHT22;16244;51.956;12.980;2023-03-02T12:43:35;6.90;79.10
29201;DHT22;16244;51.956;12.980;2023-03-02T12:46:31;6.80;79.00
29201;DHT22;16244;51.956;12.980;2023-03-02T12:49:15;6.80;77.50
29201;DHT22;16244;51.956;12.980;2023-03-02T12:51:50;6.80;78.30
29201;DHT22;16244;51.956;12.980;2023-03-02T12:54:21;6.80;78.70
29201;DHT22;16244;51.956;12.980;2023-03-02T12:56:59;6.90;78.10
29201;DHT22;16244;51.956;12.980;2023-03-02T12:59:28;6.90;77.50
29201;DHT22;16244;51.956;12.980;2023-03-02T13:02:13;6.80;77.40
29201;DHT22;16244;51.956;12.980;2023-03-02T13:04:41;6.80;77.70
29201;DHT22;16244;51.956;12.980;2023-03-02T13:07:14;6.80;77.50
29201;DHT22;16244;51.956;12.980;2023-03-02T13:09:49;6.90;78.50
29201;DHT22;16244;51.956;12.980;2023-03-02T13:12:19;6.90;78.60
29201;DHT22;16244;51.956;12.980;2023-03-02T13:14:51;6.90;78.70
29201;DHT22;16244;51.956;12.980;2023-03-02T13:17:25;7.00;77.90
29201;DHT22;16244;51.956;12.980;2023-03-02T13:19:56;7.10;76.90
29201;DHT22;16244;51.956;12.980;2023-03-02T13:22:26;7.10;77.50
29201;DHT22;16244;51.956;12.980;2023-03-02T13:25:03;7.10;78.70
29201;DHT22;16244;51.956;12.980;2023-03-02T13:27:31;7.10;76.00
29201;DHT22;16244;51.956;12.980;2023-03-02T13:30:09;7.00;76.10
29201;DHT22;16244;51.956;12.980;2023-03-02T13:32:40;7.10;77.70
29201;DHT22;16244;51.956;12.980;2023-03-02T13:35:23;7.10;78.80
29201;DHT22;16244;51.956;12.980;2023-03-02T13:37:57;7.20;77.60
29201;DHT22;16244;51.956;12.980;2023-03-02T13:40:36;7.20;75.70
29201;DHT22;16244;51.956;12.980;2023-03-02T13:46:01;7.20;75.80
29201;DHT22;16244;51.956;12.980;2023-03-02T13:48:30;7.30;77.40
29201;DHT22;16244;51.956;12.980;2023-03-02T13:51:00;7.30;77.40
29201;DHT22;16244;51.956;12.980;2023-03-02T13:53:30;7.20;76.00
29201;DHT22;16244;51.956;12.980;2023-03-02T13:56:01;7.20;75.10
29201;DHT22;16244;51.956;12.980;2023-03-02T13:58:31;7.20;77.30
29201;DHT22;16244;51.956;12.980;2023-03-02T14:01:00;7.20;77.20
29201;DHT22;16244;51.956;12.980;2023-03-02T14:03:30;7.10;79.00
29201;DHT22;16244;51.956;12.980;2023-03-02T14:05:58;7.10;80.40
29201;DHT22;16244;51.956;12.980;2023-03-02T14:08:26;7.20;81.30
29201;DHT22;16244;51.956;12.980;2023-03-02T14:10:54;7.10;80.60
29201;DHT22;16244;51.956;12.980;2023-03-02T14:13:26;7.10;81.50
29201;DHT22;16244;51.956;12.980;2023-03-02T14:15:55;7.00;83.00
29201;DHT22;16244;51.956;12.980;2023-03-02T14:18:27;7.00;81.30
29201;DHT22;16244;51.956;12.980;2023-03-02T14:20:55;6.90;82.10
29201;DHT22;16244;51.956;12.980;2023-03-02T14:23:23;6.90;83.40
29201;DHT22;16244;51.956;12.980;2023-03-02T14:25:52;6.80;83.90
29201;DHT22;16244;51.956;12.980;2023-03-02T14:28:25;6.80;84.00
29201;DHT22;16244;51.956;12.980;2023-03-02T14:30:55;6.80;83.70
29201;DHT22;16244;51.956;12.980;2023-03-02T14:33:26;6.80;84.40
29201;DHT22;16244;51.956;12.980;2023-03-02T14:35:57;6.70;84.70
29201;DHT22;16244;51.956;12.980;2023-03-02T14:38:26;6.70;85.20
29201;DHT22;16244;51.956;12.980;2023-03-02T14:40:54;6.60;85.00
29201;DHT22;16244;51.956;12.980;2023-03-02T14:43:22;6.50;85.90
29201;DHT22;16244;51.956;12.980;2023-03-02T14:45:52;6.50;85.40
29201;DHT22;16244;51.956;12.980;2023-03-02T14:48:19;6.50;84.60
29201;DHT22;16244;51.956;12.980;2023-03-02T14:50:49;6.40;85.00
29201;DHT22;16244;51.956;12.980;2023-03-02T14:53:25;6.40;87.00
29201;DHT22;16244;51.956;12.980;2023-03-02T14:55:54;6.40;86.70
29201;DHT22;16244;51.956;12.980;2023-03-02T14:58:27;6.40;86.30
29201;DHT22;16244;51.956;12.980;2023-03-02T15:00:57;6.30;85.70
29201;DHT22;16244;51.956;12.980;2023-03-02T15:03:25;6.30;85.60
29201;DHT22;16244;51.956;12.980;2023-03-02T15:05:53;6.20;85.60
29201;DHT22;16244;51.956;12.980;2023-03-02T15:08:22;6.20;86.00
29201;DHT22;16244;51.956;12.980;2023-03-02T15:10:49;6.10;87.80
29201;DHT22;16244;51.956;12.980;2023-03-02T15:13:17;6.00;87.70
29201;DHT22;16244;51.956;12.980;2023-03-02T15:15:44;5.90;87.90
29201;DHT22;16244;51.956;12.980;2023-03-02T15:18:13;5.90;88.30
29201;DHT22;16244;51.956;12.980;2023-03-02T15:20:44;5.70;88.30
29201;DHT22;16244;51.956;12.980;2023-03-02T15:23:12;5.60;89.40
29201;DHT22;16244;51.956;12.980;2023-03-02T15:25:40;5.40;89.80
29201;DHT22;16244;51.956;12.980;2023-03-02T15:28:08;5.40;90.20
29201;DHT22;16244;51.956;12.980;2023-03-02T15:30:36;5.30;90.40
29201;DHT22;16244;51.956;12.980;2023-03-02T15:33:03;5.20;90.70
29201;DHT22;16244;51.956;12.980;2023-03-02T15:35:32;5.20;90.80
29201;DHT22;16244;51.956;12.980;2023-03-02T15:38:01;5.10;90.40
29201;DHT22;16244;51.956;12.980;2023-03-02T15:40:31;5.00;90.90
29201;DHT22;16244;51.956;12.980;2023-03-02T15:42:59;4.90;91.50
29201;DHT22;16244;51.956;12.980;2023-03-02T15:45:26;4.70;91.70